sensor_id;sensor_type;location;lat;lon;timestamp;P1;durP1;ratioP1;P2;durP2;ratioP2
14276;SDS011;7222;57.346;12.150;2023-06-04T00:02:07;3.47;;;2.33;;
14276;SDS011;7222;57.346;12.150;2023-06-04T00:04:35;4.27;;;2.47;;
14276;SDS011;7222;57.346;12.150;2023-06-04T00:07:03;2.87;;;1.77;;
14276;SDS011;7222;57.346;12.150;2023-06-04T00:09:31;2.73;;;2.10;;
14276;SDS011;7222;57.346;12.150;2023-06-04T00:11:58;4.47;;;2.10;;
14276;SDS011;7222;57.346;12.150;2023-06-04T00:14:25;2.60;;;1.80;;
14276;SDS011;7222;57.346;12.150;2023-06-04T00:16:52;2.40;;;2.20;;
14276;SDS011;7222;57.346;12.150;2023-06-04T00:19:19;2.40;;;1.90;;
14276;SDS011;7222;57.346;12.150;2023-06-04T00:21:46;3.67;;;2.13;;
14276;SDS011;7222;57.346;12.150;2023-06-04T00:24:14;2.57;;;2.10;;
14276;SDS011;7222;57.346;12.150;2023-06-04T00:26:42;2.40;;;2.20;;
14276;SDS011;7222;57.346;12.150;2023-06-04T00:29:10;2.17;;;1.97;;
14276;SDS011;7222;57.346;12.150;2023-06-04T00:31:36;2.80;;;2.30;;
14276;SDS011;7222;57.346;12.150;2023-06-04T00:34:03;2.33;;;2.00;;
14276;SDS011;7222;57.346;12.150;2023-06-04T00:36:31;2.90;;;2.40;;
14276;SDS011;7222;57.346;12.150;2023-06-04T00:38:58;4.77;;;2.23;;
14276;SDS011;7222;57.346;12.150;2023-06-04T00:41:26;2.37;;;2.00;;
14276;SDS011;7222;57.346;12.150;2023-06-04T00:43:53;2.57;;;2.10;;
14276;SDS011;7222;57.346;12.150;2023-06-04T00:46:22;3.63;;;2.20;;
14276;SDS011;7222;57.346;12.150;2023-06-04T00:48:50;3.00;;;2.50;;
14276;SDS011;7222;57.346;12.150;2023-06-04T00:51:18;2.90;;;2.40;;
14276;SDS011;7222;57.346;12.150;2023-06-04T00:53:46;2.43;;;2.13;;
14276;SDS011;7222;57.346;12.150;2023-06-04T00:56:13;2.43;;;2.23;;
14276;SDS011;7222;57.346;12.150;2023-06-04T00:58:41;2.50;;;2.03;;
14276;SDS011;7222;57.346;12.150;2023-06-04T01:01:10;3.30;;;2.20;;
14276;SDS011;7222;57.346;12.150;2023-06-04T01:03:47;4.10;;;2.27;;
14276;SDS011;7222;57.346;12.150;2023-06-04T01:06:19;6.17;;;2.43;;
14276;SDS011;7222;57.346;12.150;2023-06-04T01:08:50;2.07;;;1.97;;
14276;SDS011;7222;57.346;12.150;2023-06-04T01:11:19;2.60;;;2.40;;
14276;SDS011;7222;57.346;12.150;2023-06-04T01:13:58;3.30;;;2.63;;
14276;SDS011;7222;57.346;12.150;2023-06-04T01:16:25;2.80;;;2.03;;
14276;SDS011;7222;57.346;12.150;2023-06-04T01:18:56;2.90;;;2.33;;
14276;SDS011;7222;57.346;12.150;2023-06-04T01:21:28;3.00;;;2.20;;
14276;SDS011;7222;57.346;12.150;2023-06-04T01:24:00;4.47;;;2.57;;
14276;SDS011;7222;57.346;12.150;2023-06-04T01:26:32;3.20;;;2.20;;
14276;SDS011;7222;57.346;12.150;2023-06-04T01:29:01;2.50;;;2.30;;
14276;SDS011;7222;57.346;12.150;2023-06-04T01:31:28;2.67;;;2.47;;
14276;SDS011;7222;57.346;12.150;2023-06-04T01:33:57;2.67;;;2.37;;
14276;SDS011;7222;57.346;12.150;2023-06-04T01:36:25;3.77;;;2.57;;
14276;SDS011;7222;57.346;12.150;2023-06-04T01:38:52;3.40;;;2.60;;
14276;SDS011;7222;57.346;12.150;2023-06-04T01:41:19;3.20;;;2.43;;
14276;SDS011;7222;57.346;12.150;2023-06-04T01:43:46;2.97;;;2.70;;
14276;SDS011;7222;57.346;12.150;2023-06-04T01:46:14;2.97;;;2.50;;
14276;SDS011;7222;57.346;12.150;2023-06-04T01:48:41;3.57;;;2.63;;
14276;SDS011;7222;57.346;12.150;2023-06-04T01:51:08;3.30;;;2.33;;
14276;SDS011;7222;57.346;12.150;2023-06-04T01:53:35;2.50;;;2.30;;
14276;SDS011;7222;57.346;12.150;2023-06-04T01:56:02;2.90;;;2.60;;
14276;SDS011;7222;57.346;12.150;2023-06-04T01:58:29;2.83;;;2.60;;
14276;SDS011;7222;57.346;12.150;2023-06-04T02:00:57;2.70;;;2.43;;
14276;SDS011;7222;57.346;12.150;2023-06-04T02:03:26;2.87;;;2.40;;
14276;SDS011;7222;57.346;12.150;2023-06-04T02:05:53;2.70;;;2.50;;
14276;SDS011;7222;57.346;12.150;2023-06-04T02:08:20;3.10;;;2.43;;
14276;SDS011;7222;57.346;12.150;2023-06-04T02:10:50;2.70;;;2.50;;
14276;SDS011;7222;57.346;12.150;2023-06-04T02:13:17;2.70;;;2.50;;
14276;SDS011;7222;57.346;12.150;2023-06-04T02:15:43;2.40;;;2.20;;
14276;SDS011;7222;57.346;12.150;2023-06-04T02:18:11;2.67;;;2.33;;
14276;SDS011;7222;57.346;12.150;2023-06-04T02:20:43;3.37;;;2.60;;
14276;SDS011;7222;57.346;12.150;2023-06-04T02:23:10;3.53;;;2.30;;
14276;SDS011;7222;57.346;12.150;2023-06-04T02:25:38;2.93;;;2.57;;
14276;SDS011;7222;57.346;12.150;2023-06-04T02:28:05;3.03;;;2.40;;
14276;SDS011;7222;57.346;12.150;2023-06-04T02:30:32;3.03;;;2.63;;
14276;SDS011;7222;57.346;12.150;2023-06-04T02:32:59;2.77;;;2.50;;
14276;SDS011;7222;57.346;12.150;2023-06-04T02:35:27;2.60;;;2.40;;
14276;SDS011;7222;57.346;12.150;2023-06-04T02:37:55;3.43;;;3.13;;
14276;SDS011;7222;57.346;12.150;2023-06-04T02:40:23;2.73;;;2.53;;
14276;SDS011;7222;57.346;12.150;2023-06-04T02:42:51;2.57;;;2.37;;
14276;SDS011;7222;57.346;12.150;2023-06-04T02:45:18;4.03;;;2.50;;
14276;SDS011;7222;57.346;12.150;2023-06-04T02:47:45;2.50;;;2.30;;
14276;SDS011;7222;57.346;12.150;2023-06-04T02:50:13;2.80;;;2.40;;
14276;SDS011;7222;57.346;12.150;2023-06-04T02:52:41;2.70;;;2.47;;
14276;SDS011;7222;57.346;12.150;2023-06-04T02:55:10;3.30;;;2.60;;
14276;SDS011;7222;57.346;12.150;2023-06-04T02:57:39;3.53;;;2.40;;
14276;SDS011;7222;57.346;12.150;2023-06-04T03:00:10;2.73;;;2.30;;
14276;SDS011;7222;57.346;12.150;2023-06-04T03:02:41;3.10;;;2.47;;
14276;SDS011;7222;57.346;12.150;2023-06-04T03:05:10;2.93;;;2.50;;
14276;SDS011;7222;57.346;12.150;2023-06-04T03:07:38;4.20;;;2.60;;
14276;SDS011;7222;57.346;12.150;2023-06-04T03:10:08;3.23;;;2.60;;
14276;SDS011;7222;57.346;12.150;2023-06-04T03:12:37;4.30;;;2.60;;
14276;SDS011;7222;57.346;12.150;2023-06-04T03:15:05;2.40;;;2.20;;
14276;SDS011;7222;57.346;12.150;2023-06-04T03:17:33;2.83;;;2.60;;
14276;SDS011;7222;57.346;12.150;2023-06-04T03:20:00;3.30;;;2.77;;
14276;SDS011;7222;57.346;12.150;2023-06-04T03:22:29;4.93;;;3.17;;
14276;SDS011;7222;57.346;12.150;2023-06-04T03:24:56;3.17;;;2.40;;
14276;SDS011;7222;57.346;12.150;2023-06-04T03:27:24;3.07;;;2.77;;
14276;SDS011;7222;57.346;12.150;2023-06-04T03:29:51;2.90;;;2.60;;
14276;SDS011;7222;57.346;12.150;2023-06-04T03:32:18;3.60;;;2.70;;
14276;SDS011;7222;57.346;12.150;2023-06-04T03:34:45;4.70;;;3.30;;
14276;SDS011;7222;57.346;12.150;2023-06-04T03:37:12;2.80;;;2.60;;
14276;SDS011;7222;57.346;12.150;2023-06-04T03:39:39;3.30;;;2.57;;
14276;SDS011;7222;57.346;12.150;2023-06-04T03:42:06;2.83;;;2.50;;
14276;SDS011;7222;57.346;12.150;2023-06-04T03:44:34;5.40;;;3.30;;
14276;SDS011;7222;57.346;12.150;2023-06-04T03:47:01;3.13;;;2.80;;
14276;SDS011;7222;57.346;12.150;2023-06-04T03:49:28;4.57;;;3.37;;
14276;SDS011;7222;57.346;12.150;2023-06-04T03:51:54;3.73;;;3.43;;
14276;SDS011;7222;57.346;12.150;2023-06-04T03:54:21;7.10;;;4.23;;
14276;SDS011;7222;57.346;12.150;2023-06-04T03:56:48;5.23;;;3.87;;
14276;SDS011;7222;57.346;12.150;2023-06-04T03:59:15;5.47;;;3.60;;
14276;SDS011;7222;57.346;12.150;2023-06-04T04:01:43;5.23;;;3.70;;
14276;SDS011;7222;57.346;12.150;2023-06-04T04:04:10;6.43;;;4.33;;
14276;SDS011;7222;57.346;12.150;2023-06-04T04:06:37;4.87;;;3.60;;
14276;SDS011;7222;57.346;12.150;2023-06-04T04:09:05;6.00;;;3.80;;
14276;SDS011;7222;57.346;12.150;2023-06-04T04:11:32;4.67;;;4.07;;
14276;SDS011;7222;57.346;12.150;2023-06-04T04:13:59;5.00;;;4.10;;
14276;SDS011;7222;57.346;12.150;2023-06-04T04:16:26;3.97;;;3.57;;
14276;SDS011;7222;57.346;12.150;2023-06-04T04:18:55;5.80;;;4.60;;
14276;SDS011;7222;57.346;12.150;2023-06-04T04:21:22;5.67;;;4.23;;
14276;SDS011;7222;57.346;12.150;2023-06-04T04:23:49;7.03;;;4.97;;
14276;SDS011;7222;57.346;12.150;2023-06-04T04:26:17;6.17;;;4.60;;
14276;SDS011;7222;57.346;12.150;2023-06-04T04:28:44;6.97;;;5.27;;
14276;SDS011;7222;57.346;12.150;2023-06-04T04:31:11;6.97;;;5.30;;
14276;SDS011;7222;57.346;12.150;2023-06-04T04:33:38;8.67;;;6.10;;
14276;SDS011;7222;57.346;12.150;2023-06-04T04:36:07;9.00;;;6.07;;
14276;SDS011;7222;57.346;12.150;2023-06-04T04:38:38;7.00;;;5.63;;
14276;SDS011;7222;57.346;12.150;2023-06-04T04:41:06;10.13;;;6.27;;
14276;SDS011;7222;57.346;12.150;2023-06-04T04:43:34;8.17;;;6.90;;
14276;SDS011;7222;57.346;12.150;2023-06-04T04:46:02;12.73;;;8.50;;
14276;SDS011;7222;57.346;12.150;2023-06-04T04:48:29;10.33;;;7.87;;
14276;SDS011;7222;57.346;12.150;2023-06-04T04:50:56;19.20;;;9.13;;
14276;SDS011;7222;57.346;12.150;2023-06-04T04:53:25;14.80;;;9.53;;
14276;SDS011;7222;57.346;12.150;2023-06-04T04:55:53;17.07;;;10.73;;
14276;SDS011;7222;57.346;12.150;2023-06-04T04:58:19;14.00;;;10.87;;
14276;SDS011;7222;57.346;12.150;2023-06-04T05:00:46;20.77;;;11.10;;
14276;SDS011;7222;57.346;12.150;2023-06-04T05:03:13;16.23;;;11.80;;
14276;SDS011;7222;57.346;12.150;2023-06-04T05:05:40;17.63;;;11.93;;
14276;SDS011;7222;57.346;12.150;2023-06-04T05:08:08;22.00;;;12.63;;
14276;SDS011;7222;57.346;12.150;2023-06-04T05:10:36;21.97;;;12.40;;
14276;SDS011;7222;57.346;12.150;2023-06-04T05:13:03;18.83;;;12.50;;
14276;SDS011;7222;57.346;12.150;2023-06-04T05:15:31;26.80;;;13.57;;
14276;SDS011;7222;57.346;12.150;2023-06-04T05:17:58;16.37;;;11.30;;
14276;SDS011;7222;57.346;12.150;2023-06-04T05:20:28;18.33;;;10.97;;
14276;SDS011;7222;57.346;12.150;2023-06-04T05:22:55;17.27;;;11.00;;
14276;SDS011;7222;57.346;12.150;2023-06-04T05:25:22;20.57;;;11.00;;
14276;SDS011;7222;57.346;12.150;2023-06-04T05:27:51;16.80;;;10.87;;
14276;SDS011;7222;57.346;12.150;2023-06-04T05:30:19;16.00;;;9.80;;
14276;SDS011;7222;57.346;12.150;2023-06-04T05:32:46;23.13;;;12.50;;
14276;SDS011;7222;57.346;12.150;2023-06-04T05:35:15;21.47;;;12.37;;
14276;SDS011;7222;57.346;12.150;2023-06-04T05:37:42;25.17;;;12.13;;
14276;SDS011;7222;57.346;12.150;2023-06-04T05:40:11;18.93;;;11.20;;
14276;SDS011;7222;57.346;12.150;2023-06-04T05:42:38;18.17;;;9.60;;
14276;SDS011;7222;57.346;12.150;2023-06-04T05:45:07;19.97;;;8.40;;
14276;SDS011;7222;57.346;12.150;2023-06-04T05:47:35;19.23;;;9.40;;
14276;SDS011;7222;57.346;12.150;2023-06-04T05:50:02;17.27;;;9.17;;
14276;SDS011;7222;57.346;12.150;2023-06-04T05:52:29;20.07;;;9.73;;
14276;SDS011;7222;57.346;12.150;2023-06-04T05:54:57;15.90;;;8.90;;
14276;SDS011;7222;57.346;12.150;2023-06-04T05:57:24;22.97;;;9.97;;
14276;SDS011;7222;57.346;12.150;2023-06-04T05:59:51;17.37;;;8.40;;
14276;SDS011;7222;57.346;12.150;2023-06-04T06:02:19;17.90;;;8.03;;
14276;SDS011;7222;57.346;12.150;2023-06-04T06:04:47;16.67;;;7.23;;
14276;SDS011;7222;57.346;12.150;2023-06-04T06:07:14;15.33;;;7.00;;
14276;SDS011;7222;57.346;12.150;2023-06-04T06:09:41;17.40;;;7.33;;
14276;SDS011;7222;57.346;12.150;2023-06-04T06:12:08;15.63;;;6.83;;
14276;SDS011;7222;57.346;12.150;2023-06-04T06:14:35;11.23;;;5.80;;
14276;SDS011;7222;57.346;12.150;2023-06-04T06:17:02;13.70;;;5.80;;
14276;SDS011;7222;57.346;12.150;2023-06-04T06:19:31;11.87;;;6.00;;
14276;SDS011;7222;57.346;12.150;2023-06-04T06:21:58;12.10;;;4.93;;
14276;SDS011;7222;57.346;12.150;2023-06-04T06:24:25;10.60;;;5.10;;
14276;SDS011;7222;57.346;12.150;2023-06-04T06:26:52;13.97;;;4.77;;
14276;SDS011;7222;57.346;12.150;2023-06-04T06:29:19;16.57;;;4.37;;
14276;SDS011;7222;57.346;12.150;2023-06-04T06:31:46;5.87;;;4.03;;
14276;SDS011;7222;57.346;12.150;2023-06-04T06:34:13;10.37;;;4.73;;
14276;SDS011;7222;57.346;12.150;2023-06-04T06:36:42;8.83;;;4.10;;
14276;SDS011;7222;57.346;12.150;2023-06-04T06:39:09;7.90;;;3.80;;
14276;SDS011;7222;57.346;12.150;2023-06-04T06:41:37;8.97;;;4.23;;
14276;SDS011;7222;57.346;12.150;2023-06-04T06:44:04;9.93;;;3.90;;
14276;SDS011;7222;57.346;12.150;2023-06-04T06:46:31;11.27;;;4.40;;
14276;SDS011;7222;57.346;12.150;2023-06-04T06:48:58;11.77;;;4.30;;
14276;SDS011;7222;57.346;12.150;2023-06-04T06:51:25;12.20;;;3.70;;
14276;SDS011;7222;57.346;12.150;2023-06-04T06:53:54;9.57;;;3.63;;
14276;SDS011;7222;57.346;12.150;2023-06-04T06:56:21;8.50;;;3.73;;
14276;SDS011;7222;57.346;12.150;2023-06-04T06:58:48;10.53;;;4.57;;
14276;SDS011;7222;57.346;12.150;2023-06-04T07:01:15;9.23;;;4.40;;
14276;SDS011;7222;57.346;12.150;2023-06-04T07:03:42;7.57;;;4.10;;
14276;SDS011;7222;57.346;12.150;2023-06-04T07:06:09;8.57;;;3.83;;
14276;SDS011;7222;57.346;12.150;2023-06-04T07:08:36;10.97;;;4.20;;
14276;SDS011;7222;57.346;12.150;2023-06-04T07:11:04;7.80;;;3.40;;
14276;SDS011;7222;57.346;12.150;2023-06-04T07:13:32;6.90;;;4.13;;
14276;SDS011;7222;57.346;12.150;2023-06-04T07:16:00;7.77;;;4.23;;
14276;SDS011;7222;57.346;12.150;2023-06-04T07:18:28;7.23;;;3.30;;
14276;SDS011;7222;57.346;12.150;2023-06-04T07:20:55;9.77;;;4.40;;
14276;SDS011;7222;57.346;12.150;2023-06-04T07:23:22;12.63;;;5.37;;
14276;SDS011;7222;57.346;12.150;2023-06-04T07:25:49;10.10;;;4.27;;
14276;SDS011;7222;57.346;12.150;2023-06-04T07:28:18;11.13;;;4.80;;
14276;SDS011;7222;57.346;12.150;2023-06-04T07:30:45;11.53;;;5.37;;
14276;SDS011;7222;57.346;12.150;2023-06-04T07:33:13;10.43;;;4.73;;
14276;SDS011;7222;57.346;12.150;2023-06-04T07:35:40;9.70;;;5.23;;
14276;SDS011;7222;57.346;12.150;2023-06-04T07:38:07;13.77;;;5.00;;
14276;SDS011;7222;57.346;12.150;2023-06-04T07:40:35;12.77;;;5.43;;
14276;SDS011;7222;57.346;12.150;2023-06-04T07:43:02;13.40;;;5.20;;
14276;SDS011;7222;57.346;12.150;2023-06-04T07:45:31;12.20;;;5.40;;
14276;SDS011;7222;57.346;12.150;2023-06-04T07:47:58;16.70;;;6.07;;
14276;SDS011;7222;57.346;12.150;2023-06-04T07:50:25;9.70;;;5.60;;
14276;SDS011;7222;57.346;12.150;2023-06-04T07:52:53;13.13;;;5.67;;
14276;SDS011;7222;57.346;12.150;2023-06-04T07:55:20;12.03;;;5.07;;
14276;SDS011;7222;57.346;12.150;2023-06-04T07:57:47;14.13;;;5.30;;
14276;SDS011;7222;57.346;12.150;2023-06-04T08:00:15;11.83;;;5.37;;
14276;SDS011;7222;57.346;12.150;2023-06-04T08:02:44;12.27;;;4.97;;
14276;SDS011;7222;57.346;12.150;2023-06-04T08:05:11;11.87;;;5.30;;
14276;SDS011;7222;57.346;12.150;2023-06-04T08:07:39;16.80;;;5.83;;
14276;SDS011;7222;57.346;12.150;2023-06-04T08:10:07;13.40;;;5.07;;
14276;SDS011;7222;57.346;12.150;2023-06-04T08:12:34;10.73;;;4.87;;
14276;SDS011;7222;57.346;12.150;2023-06-04T08:15:01;11.77;;;4.50;;
14276;SDS011;7222;57.346;12.150;2023-06-04T08:17:29;8.77;;;3.93;;
14276;SDS011;7222;57.346;12.150;2023-06-04T08:19:57;12.73;;;4.43;;
14276;SDS011;7222;57.346;12.150;2023-06-04T08:22:24;7.10;;;4.30;;
14276;SDS011;7222;57.346;12.150;2023-06-04T08:24:52;13.17;;;5.23;;
14276;SDS011;7222;57.346;12.150;2023-06-04T08:27:19;8.93;;;4.33;;
14276;SDS011;7222;57.346;12.150;2023-06-04T08:29:46;11.50;;;4.93;;
14276;SDS011;7222;57.346;12.150;2023-06-04T08:32:13;9.97;;;4.83;;
14276;SDS011;7222;57.346;12.150;2023-06-04T08:34:40;14.43;;;5.47;;
14276;SDS011;7222;57.346;12.150;2023-06-04T08:37:09;9.77;;;4.70;;
14276;SDS011;7222;57.346;12.150;2023-06-04T08:39:36;9.00;;;4.57;;
14276;SDS011;7222;57.346;12.150;2023-06-04T08:42:04;9.43;;;4.00;;
14276;SDS011;7222;57.346;12.150;2023-06-04T08:44:33;11.03;;;4.17;;
14276;SDS011;7222;57.346;12.150;2023-06-04T08:47:01;11.10;;;4.63;;
14276;SDS011;7222;57.346;12.150;2023-06-04T08:49:31;13.97;;;5.00;;
14276;SDS011;7222;57.346;12.150;2023-06-04T08:52:01;10.97;;;4.57;;
14276;SDS011;7222;57.346;12.150;2023-06-04T08:54:29;12.13;;;4.83;;
14276;SDS011;7222;57.346;12.150;2023-06-04T08:56:57;11.40;;;4.77;;
14276;SDS011;7222;57.346;12.150;2023-06-04T08:59:25;12.57;;;5.17;;
14276;SDS011;7222;57.346;12.150;2023-06-04T09:01:52;9.93;;;4.90;;
14276;SDS011;7222;57.346;12.150;2023-06-04T09:04:20;12.43;;;5.87;;
14276;SDS011;7222;57.346;12.150;2023-06-04T09:06:48;11.40;;;5.30;;
14276;SDS011;7222;57.346;12.150;2023-06-04T09:09:16;9.73;;;4.97;;
14276;SDS011;7222;57.346;12.150;2023-06-04T09:11:49;9.63;;;5.37;;
14276;SDS011;7222;57.346;12.150;2023-06-04T09:14:18;13.17;;;4.90;;
14276;SDS011;7222;57.346;12.150;2023-06-04T09:16:45;9.77;;;3.93;;
14276;SDS011;7222;57.346;12.150;2023-06-04T09:19:13;10.60;;;4.83;;
14276;SDS011;7222;57.346;12.150;2023-06-04T09:21:47;11.33;;;4.97;;
14276;SDS011;7222;57.346;12.150;2023-06-04T09:24:14;10.73;;;5.20;;
14276;SDS011;7222;57.346;12.150;2023-06-04T09:26:41;9.93;;;4.83;;
14276;SDS011;7222;57.346;12.150;2023-06-04T09:29:10;13.33;;;4.90;;
14276;SDS011;7222;57.346;12.150;2023-06-04T09:31:37;11.27;;;4.87;;
14276;SDS011;7222;57.346;12.150;2023-06-04T09:34:05;7.10;;;3.67;;
14276;SDS011;7222;57.346;12.150;2023-06-04T09:36:32;12.70;;;4.47;;
14276;SDS011;7222;57.346;12.150;2023-06-04T09:39:00;9.20;;;4.47;;
14276;SDS011;7222;57.346;12.150;2023-06-04T09:41:28;11.03;;;4.83;;
14276;SDS011;7222;57.346;12.150;2023-06-04T09:43:59;10.67;;;4.53;;
14276;SDS011;7222;57.346;12.150;2023-06-04T09:46:29;9.37;;;3.97;;
14276;SDS011;7222;57.346;12.150;2023-06-04T09:49:00;8.67;;;5.17;;
14276;SDS011;7222;57.346;12.150;2023-06-04T09:51:29;9.63;;;5.03;;
14276;SDS011;7222;57.346;12.150;2023-06-04T09:53:57;10.53;;;4.87;;
14276;SDS011;7222;57.346;12.150;2023-06-04T09:56:26;8.50;;;3.87;;
14276;SDS011;7222;57.346;12.150;2023-06-04T09:58:54;10.13;;;4.33;;
14276;SDS011;7222;57.346;12.150;2023-06-04T10:01:22;10.70;;;4.83;;
14276;SDS011;7222;57.346;12.150;2023-06-04T10:03:53;13.57;;;4.83;;
14276;SDS011;7222;57.346;12.150;2023-06-04T10:06:22;11.57;;;4.80;;
14276;SDS011;7222;57.346;12.150;2023-06-04T10:08:50;10.33;;;5.00;;
14276;SDS011;7222;57.346;12.150;2023-06-04T10:11:20;9.93;;;4.07;;
14276;SDS011;7222;57.346;12.150;2023-06-04T10:13:52;9.80;;;4.77;;
14276;SDS011;7222;57.346;12.150;2023-06-04T10:16:22;8.40;;;4.33;;
14276;SDS011;7222;57.346;12.150;2023-06-04T10:18:52;12.20;;;4.40;;
14276;SDS011;7222;57.346;12.150;2023-06-04T10:21:21;13.33;;;5.23;;
14276;SDS011;7222;57.346;12.150;2023-06-04T10:23:48;11.67;;;5.03;;
14276;SDS011;7222;57.346;12.150;2023-06-04T10:26:16;10.97;;;4.33;;
14276;SDS011;7222;57.346;12.150;2023-06-04T10:28:43;9.10;;;4.77;;
14276;SDS011;7222;57.346;12.150;2023-06-04T10:31:10;10.67;;;4.40;;
14276;SDS011;7222;57.346;12.150;2023-06-04T10:33:38;12.83;;;4.73;;
14276;SDS011;7222;57.346;12.150;2023-06-04T10:36:19;10.80;;;4.67;;
14276;SDS011;7222;57.346;12.150;2023-06-04T10:38:47;12.17;;;5.13;;
14276;SDS011;7222;57.346;12.150;2023-06-04T10:41:14;9.40;;;4.40;;
14276;SDS011;7222;57.346;12.150;2023-06-04T10:43:42;9.73;;;3.87;;
14276;SDS011;7222;57.346;12.150;2023-06-04T10:46:12;9.97;;;4.27;;
14276;SDS011;7222;57.346;12.150;2023-06-04T10:48:47;7.13;;;4.33;;
14276;SDS011;7222;57.346;12.150;2023-06-04T10:51:15;10.27;;;4.33;;
14276;SDS011;7222;57.346;12.150;2023-06-04T10:53:56;8.33;;;4.40;;
14276;SDS011;7222;57.346;12.150;2023-06-04T10:56:26;10.37;;;4.40;;
14276;SDS011;7222;57.346;12.150;2023-06-04T10:58:54;9.23;;;4.37;;
14276;SDS011;7222;57.346;12.150;2023-06-04T11:01:24;9.10;;;4.13;;
14276;SDS011;7222;57.346;12.150;2023-06-04T11:03:52;9.30;;;4.23;;
14276;SDS011;7222;57.346;12.150;2023-06-04T11:06:19;12.27;;;3.80;;
14276;SDS011;7222;57.346;12.150;2023-06-04T11:08:46;9.57;;;4.33;;
14276;SDS011;7222;57.346;12.150;2023-06-04T11:11:16;8.93;;;4.40;;
14276;SDS011;7222;57.346;12.150;2023-06-04T11:13:43;8.87;;;4.50;;
14276;SDS011;7222;57.346;12.150;2023-06-04T11:16:16;7.67;;;3.67;;
14276;SDS011;7222;57.346;12.150;2023-06-04T11:18:53;6.87;;;3.60;;
14276;SDS011;7222;57.346;12.150;2023-06-04T11:21:21;11.03;;;4.27;;
14276;SDS011;7222;57.346;12.150;2023-06-04T11:23:48;9.30;;;4.10;;
14276;SDS011;7222;57.346;12.150;2023-06-04T11:26:22;8.37;;;4.53;;
14276;SDS011;7222;57.346;12.150;2023-06-04T11:28:50;9.57;;;3.90;;
14276;SDS011;7222;57.346;12.150;2023-06-04T11:31:19;10.10;;;4.20;;
14276;SDS011;7222;57.346;12.150;2023-06-04T11:33:46;8.97;;;4.30;;
14276;SDS011;7222;57.346;12.150;2023-06-04T11:36:23;7.60;;;3.80;;
14276;SDS011;7222;57.346;12.150;2023-06-04T11:38:55;10.10;;;4.13;;
14276;SDS011;7222;57.346;12.150;2023-06-04T11:41:24;7.33;;;4.00;;
14276;SDS011;7222;57.346;12.150;2023-06-04T11:43:53;8.47;;;3.93;;
14276;SDS011;7222;57.346;12.150;2023-06-04T11:46:21;7.37;;;4.33;;
14276;SDS011;7222;57.346;12.150;2023-06-04T11:48:50;7.27;;;3.30;;
14276;SDS011;7222;57.346;12.150;2023-06-04T11:51:17;6.23;;;3.90;;
14276;SDS011;7222;57.346;12.150;2023-06-04T11:53:45;7.50;;;4.30;;
14276;SDS011;7222;57.346;12.150;2023-06-04T11:56:13;8.30;;;4.67;;
14276;SDS011;7222;57.346;12.150;2023-06-04T11:58:42;10.17;;;4.70;;
14276;SDS011;7222;57.346;12.150;2023-06-04T12:01:11;8.07;;;4.30;;
14276;SDS011;7222;57.346;12.150;2023-06-04T12:03:39;10.93;;;4.23;;
14276;SDS011;7222;57.346;12.150;2023-06-04T12:06:11;7.87;;;3.90;;
14276;SDS011;7222;57.346;12.150;2023-06-04T12:08:45;8.67;;;3.93;;
14276;SDS011;7222;57.346;12.150;2023-06-04T12:11:24;10.93;;;4.33;;
14276;SDS011;7222;57.346;12.150;2023-06-04T12:13:54;7.50;;;4.63;;
14276;SDS011;7222;57.346;12.150;2023-06-04T12:16:21;5.17;;;3.63;;
14276;SDS011;7222;57.346;12.150;2023-06-04T12:18:49;7.90;;;3.80;;
14276;SDS011;7222;57.346;12.150;2023-06-04T12:21:22;10.60;;;4.50;;
14276;SDS011;7222;57.346;12.150;2023-06-04T12:23:52;8.33;;;4.47;;
14276;SDS011;7222;57.346;12.150;2023-06-04T12:26:21;10.53;;;5.17;;
14276;SDS011;7222;57.346;12.150;2023-06-04T12:29:01;9.03;;;4.43;;
14276;SDS011;7222;57.346;12.150;2023-06-04T12:31:32;7.57;;;4.23;;
14276;SDS011;7222;57.346;12.150;2023-06-04T12:34:00;8.27;;;4.40;;
14276;SDS011;7222;57.346;12.150;2023-06-04T12:36:27;7.57;;;3.63;;
14276;SDS011;7222;57.346;12.150;2023-06-04T12:38:57;8.80;;;3.80;;
14276;SDS011;7222;57.346;12.150;2023-06-04T12:41:25;8.87;;;3.50;;
14276;SDS011;7222;57.346;12.150;2023-06-04T12:43:52;7.50;;;4.63;;
14276;SDS011;7222;57.346;12.150;2023-06-04T12:46:21;9.23;;;4.77;;
14276;SDS011;7222;57.346;12.150;2023-06-04T12:48:48;8.07;;;4.60;;
14276;SDS011;7222;57.346;12.150;2023-06-04T12:51:15;8.00;;;4.20;;
14276;SDS011;7222;57.346;12.150;2023-06-04T12:53:42;8.33;;;4.20;;
14276;SDS011;7222;57.346;12.150;2023-06-04T12:56:10;7.50;;;4.23;;
14276;SDS011;7222;57.346;12.150;2023-06-04T12:58:37;8.25;;;4.28;;
14276;SDS011;7222;57.346;12.150;2023-06-04T13:01:04;8.40;;;4.40;;
14276;SDS011;7222;57.346;12.150;2023-06-04T13:03:33;9.93;;;4.18;;
14276;SDS011;7222;57.346;12.150;2023-06-04T13:06:02;7.25;;;3.90;;
14276;SDS011;7222;57.346;12.150;2023-06-04T13:08:30;9.32;;;3.88;;
14276;SDS011;7222;57.346;12.150;2023-06-04T13:10:57;7.23;;;3.53;;
14276;SDS011;7222;57.346;12.150;2023-06-04T13:13:25;7.30;;;3.60;;
14276;SDS011;7222;57.346;12.150;2023-06-04T13:15:52;7.25;;;3.75;;
14276;SDS011;7222;57.346;12.150;2023-06-04T13:18:19;6.00;;;3.85;;
14276;SDS011;7222;57.346;12.150;2023-06-04T13:20:47;5.70;;;3.00;;
14276;SDS011;7222;57.346;12.150;2023-06-04T13:23:15;6.80;;;3.60;;
14276;SDS011;7222;57.346;12.150;2023-06-04T13:25:42;5.60;;;3.40;;
14276;SDS011;7222;57.346;12.150;2023-06-04T13:28:09;7.25;;;3.40;;
14276;SDS011;7222;57.346;12.150;2023-06-04T13:30:36;6.07;;;3.45;;
14276;SDS011;7222;57.346;12.150;2023-06-04T13:33:03;6.28;;;3.58;;
14276;SDS011;7222;57.346;12.150;2023-06-04T13:35:31;7.72;;;4.10;;
14276;SDS011;7222;57.346;12.150;2023-06-04T13:37:59;5.72;;;3.20;;
14276;SDS011;7222;57.346;12.150;2023-06-04T13:40:26;4.70;;;3.03;;
14276;SDS011;7222;57.346;12.150;2023-06-04T13:42:53;5.03;;;3.10;;
14276;SDS011;7222;57.346;12.150;2023-06-04T13:45:20;5.78;;;3.30;;
14276;SDS011;7222;57.346;12.150;2023-06-04T13:47:47;4.53;;;3.00;;
14276;SDS011;7222;57.346;12.150;2023-06-04T13:50:14;7.53;;;3.88;;
14276;SDS011;7222;57.346;12.150;2023-06-04T13:52:41;5.00;;;3.10;;
14276;SDS011;7222;57.346;12.150;2023-06-04T13:55:09;4.00;;;2.78;;
14276;SDS011;7222;57.346;12.150;2023-06-04T13:57:38;5.30;;;3.08;;
14276;SDS011;7222;57.346;12.150;2023-06-04T14:00:05;5.47;;;3.10;;
14276;SDS011;7222;57.346;12.150;2023-06-04T14:02:33;5.70;;;3.13;;
14276;SDS011;7222;57.346;12.150;2023-06-04T14:05:00;5.65;;;3.08;;
14276;SDS011;7222;57.346;12.150;2023-06-04T14:07:27;8.18;;;3.40;;
14276;SDS011;7222;57.346;12.150;2023-06-04T14:09:54;7.60;;;3.58;;
14276;SDS011;7222;57.346;12.150;2023-06-04T14:12:23;5.68;;;2.88;;
14276;SDS011;7222;57.346;12.150;2023-06-04T14:14:51;6.57;;;3.20;;
14276;SDS011;7222;57.346;12.150;2023-06-04T14:17:17;5.45;;;2.80;;
14276;SDS011;7222;57.346;12.150;2023-06-04T14:19:44;5.68;;;3.13;;
14276;SDS011;7222;57.346;12.150;2023-06-04T14:22:11;6.15;;;3.13;;
14276;SDS011;7222;57.346;12.150;2023-06-04T14:24:39;4.45;;;2.90;;
14276;SDS011;7222;57.346;12.150;2023-06-04T14:27:06;6.40;;;3.20;;
14276;SDS011;7222;57.346;12.150;2023-06-04T14:29:36;5.15;;;3.28;;
14276;SDS011;7222;57.346;12.150;2023-06-04T14:32:03;5.30;;;3.47;;
14276;SDS011;7222;57.346;12.150;2023-06-04T14:34:30;6.18;;;2.90;;
14276;SDS011;7222;57.346;12.150;2023-06-04T14:36:58;5.60;;;2.78;;
14276;SDS011;7222;57.346;12.150;2023-06-04T14:39:25;3.65;;;2.83;;
14276;SDS011;7222;57.346;12.150;2023-06-04T14:41:53;6.38;;;3.10;;
14276;SDS011;7222;57.346;12.150;2023-06-04T14:44:20;3.92;;;2.78;;
14276;SDS011;7222;57.346;12.150;2023-06-04T14:46:50;5.38;;;3.00;;
14276;SDS011;7222;57.346;12.150;2023-06-04T14:49:17;3.47;;;2.45;;